createdAt,value
2023-04-27T00:01:38.278Z,66.38
2023-04-27T00:04:05.232Z,66.83
2023-04-27T00:09:13.213Z,67.81
2023-04-27T00:11:40.016Z,67.62
2023-04-27T00:14:06.823Z,68.16
2023-04-27T00:16:33.540Z,68.49
2023-04-27T00:19:00.987Z,69.04
2023-04-27T00:21:27.846Z,69.47
2023-04-27T00:23:54.975Z,69.22
2023-04-27T00:26:22.601Z,69.25
2023-04-27T00:28:52.015Z,69.40
2023-04-27T00:31:18.589Z,69.83
2023-04-27T00:33:48.248Z,69.86
2023-04-27T00:36:16.208Z,70.58
2023-04-27T00:38:42.685Z,71.22
2023-04-27T00:41:09.277Z,71.45
2023-04-27T00:43:44.176Z,71.75
2023-04-27T00:46:13.095Z,71.53
2023-04-27T00:48:43.527Z,72.36
2023-04-27T00:51:10.523Z,72.93
2023-04-27T00:53:37.735Z,73.37
2023-04-27T00:56:06.677Z,73.28
2023-04-27T00:58:33.265Z,73.20
2023-04-27T01:01:00.978Z,73.33
2023-04-27T01:03:27.934Z,73.46
2023-04-27T01:05:54.706Z,73.21
2023-04-27T01:08:21.553Z,73.25
2023-04-27T01:10:49.741Z,73.04
2023-04-27T01:13:16.602Z,73.41
2023-04-27T01:15:43.301Z,73.90
2023-04-27T01:18:10.008Z,74.05
2023-04-27T01:20:36.834Z,73.85
2023-04-27T01:23:03.662Z,74.12
2023-04-27T01:25:30.242Z,73.80
2023-04-27T01:27:57.190Z,73.32
2023-04-27T01:30:23.800Z,73.16
2023-04-27T01:32:50.696Z,73.11
2023-04-27T01:35:17.504Z,73.35
2023-04-27T01:37:44.298Z,73.55
2023-04-27T01:40:11.749Z,73.43
2023-04-27T01:42:38.561Z,73.51
2023-04-27T01:45:05.817Z,73.51
2023-04-27T01:47:32.523Z,73.92
2023-04-27T01:49:59.148Z,74.04
2023-04-27T01:52:26.224Z,73.79
2023-04-27T01:54:52.811Z,73.93
2023-04-27T01:57:19.761Z,74.09
2023-04-27T01:59:47.740Z,74.33
2023-04-27T02:02:14.317Z,74.61
2023-04-27T02:04:43.474Z,74.78
2023-04-27T02:07:10.370Z,75.01
2023-04-27T02:09:38.254Z,75.06
2023-04-27T02:12:05.162Z,75.00
2023-04-27T02:14:32.993Z,75.44
2023-04-27T02:16:59.922Z,76.17
2023-04-27T02:19:26.632Z,75.91
2023-04-27T02:21:53.377Z,76.14
2023-04-27T02:24:20.051Z,76.88
2023-04-27T02:26:46.617Z,76.71
2023-04-27T02:29:13.418Z,76.57
2023-04-27T02:31:41.040Z,76.52
2023-04-27T02:34:07.628Z,76.10
2023-04-27T02:36:34.200Z,76.19
2023-04-27T02:39:00.782Z,75.92
2023-04-27T02:41:28.665Z,76.31
2023-04-27T02:43:55.266Z,76.62
2023-04-27T02:46:22.302Z,76.54
2023-04-27T02:48:48.921Z,76.43
2023-04-27T02:51:15.555Z,76.48
2023-04-27T02:53:42.135Z,76.19
2023-04-27T02:56:08.729Z,76.56
2023-04-27T02:58:35.383Z,76.49
2023-04-27T03:01:02.860Z,76.39
2023-04-27T03:03:29.785Z,76.97
2023-04-27T03:05:56.609Z,76.86
2023-04-27T03:08:23.177Z,76.84
2023-04-27T03:10:52.333Z,76.82
2023-04-27T03:13:18.949Z,76.63
2023-04-27T03:15:45.849Z,76.74
2023-04-27T03:18:12.448Z,76.63
2023-04-27T03:20:39.047Z,76.52
2023-04-27T03:23:05.842Z,76.77
2023-04-27T03:25:32.546Z,76.71
2023-04-27T03:27:59.146Z,76.71
2023-04-27T03:30:25.721Z,76.89
2023-04-27T03:32:52.377Z,77.08
2023-04-27T03:35:19.113Z,77.30
2023-04-27T03:37:46.309Z,77.27
2023-04-27T03:40:14.517Z,77.31
2023-04-27T03:42:41.231Z,77.76
2023-04-27T03:45:08.359Z,77.73
2023-04-27T03:47:34.951Z,77.75
2023-04-27T03:50:01.561Z,77.78
2023-04-27T03:52:28.115Z,78.20
2023-04-27T03:54:54.737Z,78.40
2023-04-27T03:57:21.635Z,78.11
2023-04-27T03:59:48.313Z,78.10
2023-04-27T04:02:15.307Z,78.56
2023-04-27T04:04:42.433Z,78.52
2023-04-27T04:07:09.248Z,78.82
2023-04-27T04:09:35.910Z,78.56
2023-04-27T04:12:02.509Z,78.76
2023-04-27T04:14:30.786Z,79.06
2023-04-27T04:16:57.371Z,78.89
2023-04-27T04:19:23.943Z,79.10
2023-04-27T04:21:50.804Z,79.31
2023-04-27T04:24:17.361Z,79.46
2023-04-27T04:26:43.962Z,79.73
2023-04-27T04:29:11.308Z,79.47
2023-04-27T04:31:38.259Z,79.64
2023-04-27T04:34:05.065Z,79.75
2023-04-27T04:36:32.246Z,80.04
2023-04-27T04:38:59.416Z,80.10
2023-04-27T04:41:26.165Z,79.71
2023-04-27T04:43:54.703Z,79.58
2023-04-27T04:46:22.409Z,79.56
2023-04-27T04:48:49.428Z,79.69
2023-04-27T04:51:16.160Z,79.56
2023-04-27T04:53:43.035Z,79.52
2023-04-27T04:56:14.298Z,79.28
2023-04-27T04:58:40.944Z,79.19
2023-04-27T05:01:07.692Z,79.12
2023-04-27T05:03:34.599Z,79.00
2023-04-27T05:06:01.448Z,78.72
2023-04-27T05:08:28.063Z,78.63
2023-04-27T05:10:55.018Z,78.65
2023-04-27T05:13:21.884Z,78.66
2023-04-27T05:15:48.952Z,78.60
2023-04-27T05:18:15.638Z,78.15
2023-04-27T05:20:42.350Z,78.27
2023-04-27T05:23:08.920Z,77.87
2023-04-27T05:25:41.742Z,78.06
2023-04-27T05:28:09.850Z,77.63
2023-04-27T05:30:37.797Z,77.63
2023-04-27T05:33:05.259Z,77.28
2023-04-27T05:35:33.834Z,76.96
2023-04-27T05:38:00.825Z,76.73
2023-04-27T05:40:28.116Z,76.64
2023-04-27T05:42:56.781Z,76.30
2023-04-27T05:45:23.493Z,76.12
2023-04-27T05:47:50.146Z,75.80
2023-04-27T05:50:16.884Z,75.47
2023-04-27T05:52:44.558Z,75.37
2023-04-27T05:55:11.586Z,75.19
2023-04-27T05:57:41.836Z,75.18
2023-04-27T06:00:12.075Z,75.02
2023-04-27T06:02:40.209Z,75.01
2023-04-27T06:05:07.300Z,74.73
2023-04-27T06:07:34.099Z,74.54
2023-04-27T06:10:00.797Z,73.99
2023-04-27T06:12:27.670Z,73.88
2023-04-27T06:14:54.376Z,73.93
2023-04-27T06:17:21.984Z,73.51
2023-04-27T06:19:48.673Z,73.35
2023-04-27T06:22:15.216Z,72.86
2023-04-27T06:24:43.309Z,72.29
2023-04-27T06:27:09.963Z,72.48
2023-04-27T06:33:42.848Z,71.68
2023-04-27T06:36:09.814Z,72.03
2023-04-27T06:38:36.598Z,71.63
2023-04-27T06:41:03.464Z,70.36
2023-04-27T06:43:31.038Z,70.46
2023-04-27T06:45:57.692Z,70.62
2023-04-27T06:48:24.432Z,70.27
2023-04-27T06:50:54.944Z,69.65
2023-04-27T06:53:21.908Z,70.15
2023-04-27T07:14:34.184Z,66.14
2023-04-27T07:17:00.814Z,65.84
2023-04-27T07:19:28.623Z,66.45
2023-04-27T07:21:55.302Z,65.83
2023-04-27T07:24:21.913Z,65.49
2023-04-27T07:26:48.604Z,64.60
2023-04-27T07:29:26.672Z,64.15
2023-04-27T07:31:54.517Z,63.41
2023-04-27T07:34:21.163Z,62.83
2023-04-27T07:36:47.826Z,62.56
2023-04-27T07:39:15.416Z,62.24
2023-04-27T07:41:42.434Z,61.88
2023-04-27T07:44:09.439Z,60.40
2023-04-27T07:46:39.305Z,60.18
2023-04-27T07:49:06.112Z,57.46
2023-04-27T07:51:35.038Z,56.03
2023-04-27T07:54:02.684Z,57.13
2023-04-27T07:56:29.326Z,56.79
2023-04-27T07:58:56.196Z,55.58
2023-04-27T08:01:23.964Z,55.96
2023-04-27T08:03:53.074Z,55.03
2023-04-27T08:06:20.711Z,53.21
2023-04-27T08:08:47.476Z,51.46
2023-04-27T08:11:14.096Z,53.17
2023-04-27T08:13:41.052Z,52.38
2023-04-27T08:16:07.765Z,47.84
2023-04-27T08:18:34.635Z,46.90
2023-04-27T08:21:01.326Z,47.06
2023-04-27T08:23:28.525Z,48.89
2023-04-27T08:25:55.609Z,47.02
2023-04-27T08:28:25.753Z,48.17
2023-04-27T08:30:52.358Z,46.20
2023-04-27T08:33:20.453Z,47.23
2023-04-27T08:35:47.437Z,49.59
2023-04-27T08:38:14.076Z,47.40
2023-04-27T08:40:44.238Z,47.78
2023-04-27T08:43:11.011Z,46.22
2023-04-27T08:45:37.908Z,50.26
2023-04-27T08:48:04.963Z,49.37
2023-04-27T08:50:31.743Z,47.90
2023-04-27T08:53:01.966Z,46.66
2023-04-27T08:55:28.699Z,46.82
2023-04-27T08:57:56.725Z,47.66
2023-04-27T09:00:25.846Z,47.26
2023-04-27T09:02:53.124Z,45.73
2023-04-27T09:05:22.798Z,48.46
2023-04-27T09:08:15.863Z,46.98
2023-04-27T09:10:50.545Z,45.02
2023-04-27T09:13:17.643Z,45.26
2023-04-27T09:15:48.591Z,43.97
2023-04-27T09:18:21.246Z,43.14
2023-04-27T09:20:50.178Z,43.88
2023-04-27T09:23:34.233Z,45.37
2023-04-27T09:26:03.951Z,43.96
2023-04-27T09:28:32.498Z,42.72
2023-04-27T09:31:00.173Z,42.91
2023-04-27T09:33:27.605Z,43.49
2023-04-27T09:35:54.598Z,46.16
2023-04-27T09:38:22.739Z,45.15
2023-04-27T09:40:51.114Z,44.80
2023-04-27T09:43:17.969Z,44.13
2023-04-27T09:45:45.036Z,43.48
2023-04-27T09:48:12.797Z,44.17
2023-04-27T09:50:40.630Z,43.93
2023-04-27T09:53:11.041Z,43.91
2023-04-27T09:55:56.719Z,44.29
2023-04-27T09:58:39.405Z,43.82
2023-04-27T10:01:13.088Z,46.81
2023-04-27T10:04:06.107Z,46.13
2023-04-27T10:06:53.191Z,44.99
2023-04-27T10:09:23.993Z,44.06
2023-04-27T10:11:52.556Z,42.04
2023-04-27T10:14:21.837Z,42.01
2023-04-27T10:16:55.211Z,42.40
2023-04-27T10:19:23.840Z,42.04
2023-04-27T10:22:03.711Z,42.38
2023-04-27T10:24:40.994Z,41.95
2023-04-27T10:27:09.471Z,42.74
2023-04-27T10:29:42.231Z,42.45
2023-04-27T10:32:13.058Z,43.07
2023-04-27T10:34:40.775Z,43.04
2023-04-27T10:37:08.441Z,44.23
2023-04-27T10:39:47.064Z,44.19
2023-04-27T10:42:26.863Z,43.86
2023-04-27T10:44:57.017Z,43.95
2023-04-27T10:47:24.752Z,44.48
2023-04-27T10:49:57.173Z,43.02
2023-04-27T10:52:25.077Z,44.62
2023-04-27T10:54:51.765Z,44.89
2023-04-27T10:57:18.420Z,42.96
2023-04-27T10:59:52.392Z,41.25
2023-04-27T11:02:26.861Z,42.37
2023-04-27T11:04:53.802Z,43.33
2023-04-27T11:07:25.558Z,45.19
2023-04-27T11:09:53.167Z,43.25
2023-04-27T11:12:19.786Z,41.96
2023-04-27T11:14:46.543Z,40.99
2023-04-27T11:17:13.528Z,40.22
2023-04-27T11:19:47.563Z,40.38
2023-04-27T11:22:18.800Z,39.74
2023-04-27T11:24:50.279Z,39.62
2023-04-27T11:27:18.027Z,40.66
2023-04-27T11:29:44.837Z,39.29
2023-04-27T11:32:25.601Z,40.05
2023-04-27T11:34:57.792Z,40.91
2023-04-27T11:37:27.819Z,41.26
2023-04-27T11:39:57.580Z,40.95
2023-04-27T11:42:26.280Z,40.44
2023-04-27T11:44:54.648Z,41.14
2023-04-27T11:47:23.036Z,40.84
2023-04-27T11:49:54.089Z,40.13
2023-04-27T11:52:21.062Z,39.67
2023-04-27T11:54:56.822Z,40.02
2023-04-27T11:57:27.412Z,39.11
2023-04-27T11:59:56.744Z,41.22
2023-04-27T12:02:23.771Z,41.94
2023-04-27T12:04:51.775Z,41.56
2023-04-27T12:07:24.300Z,42.25
2023-04-27T12:09:51.108Z,41.74
2023-04-27T12:12:22.535Z,40.66
2023-04-27T12:14:53.771Z,39.15
2023-04-27T12:17:20.489Z,40.18
2023-04-27T12:19:47.059Z,39.19
2023-04-27T12:22:17.904Z,39.17
2023-04-27T12:24:44.567Z,40.14
2023-04-27T12:27:11.214Z,38.43
2023-04-27T12:29:37.927Z,38.82
2023-04-27T12:32:05.890Z,39.70
2023-04-27T12:34:32.911Z,40.60
2023-04-27T12:36:59.455Z,40.32
2023-04-27T12:39:26.230Z,41.13
2023-04-27T12:41:53.922Z,40.89
2023-04-27T12:44:24.382Z,39.71
2023-04-27T12:46:51.297Z,39.65
2023-04-27T12:49:18.378Z,40.02
2023-04-27T12:51:46.819Z,39.00
2023-04-27T12:54:13.898Z,40.18
2023-04-27T12:56:42.105Z,41.03
2023-04-27T12:59:08.860Z,41.00
2023-04-27T13:01:35.554Z,40.53
2023-04-27T13:04:04.164Z,41.88
2023-04-27T13:06:32.211Z,41.11
2023-04-27T13:09:02.699Z,41.22
2023-04-27T13:11:29.695Z,40.50
2023-04-27T13:13:56.674Z,41.86
2023-04-27T13:16:27.577Z,42.38
2023-04-27T13:18:57.907Z,41.99
2023-04-27T13:21:24.606Z,41.44
2023-04-27T13:24:00.078Z,40.48
2023-04-27T13:26:26.973Z,39.62
2023-04-27T13:28:53.783Z,39.03
2023-04-27T13:31:20.540Z,39.54
2023-04-27T13:33:47.281Z,39.74
2023-04-27T13:36:14.039Z,39.80
2023-04-27T13:38:41.144Z,39.42
2023-04-27T13:41:08.488Z,38.87
2023-04-27T13:43:35.125Z,38.58
2023-04-27T13:46:04.121Z,38.94
2023-04-27T13:48:31.317Z,37.64
2023-04-27T13:50:58.375Z,38.19
2023-04-27T13:53:26.058Z,37.18
2023-04-27T13:55:58.285Z,37.80
2023-04-27T13:58:29.297Z,38.54
2023-04-27T14:00:56.119Z,40.26
2023-04-27T14:03:23.063Z,40.32
2023-04-27T14:05:51.589Z,41.19
2023-04-27T14:08:18.817Z,39.77
2023-04-27T14:10:47.297Z,37.79
2023-04-27T14:13:14.672Z,36.05
2023-04-27T14:15:41.594Z,36.31
2023-04-27T14:18:10.735Z,37.88
2023-04-27T14:20:38.709Z,38.37
2023-04-27T14:23:08.480Z,37.89
2023-04-27T14:25:35.292Z,37.50
2023-04-27T14:28:07.313Z,37.50
2023-04-27T14:30:35.116Z,37.94
2023-04-27T14:33:04.923Z,38.90
2023-04-27T14:35:34.507Z,39.52
2023-04-27T14:38:18.016Z,40.03
2023-04-27T14:40:44.828Z,39.90
2023-04-27T14:43:11.496Z,39.56
2023-04-27T14:45:50.237Z,39.66
2023-04-27T14:48:18.211Z,39.68
2023-04-27T14:50:44.961Z,39.90
2023-04-27T14:53:11.612Z,39.24
2023-04-27T14:55:38.359Z,39.62
2023-04-27T14:58:04.997Z,39.71
2023-04-27T15:00:31.767Z,39.96
2023-04-27T15:02:58.474Z,40.10
2023-04-27T15:05:26.689Z,40.44
2023-04-27T15:07:53.318Z,40.71
2023-04-27T15:10:21.534Z,42.49
2023-04-27T15:12:48.081Z,40.68
2023-04-27T15:15:14.786Z,41.10
2023-04-27T15:17:41.813Z,40.52
2023-04-27T15:20:10.063Z,39.12
2023-04-27T15:22:38.166Z,40.30
2023-04-27T15:25:05.202Z,38.96
2023-04-27T15:27:31.822Z,38.79
2023-04-27T15:29:58.813Z,39.73
2023-04-27T15:32:30.093Z,39.85
2023-04-27T15:35:00.597Z,38.89
2023-04-27T15:37:28.567Z,40.33
2023-04-27T15:39:56.224Z,40.32
2023-04-27T15:42:23.818Z,40.04
2023-04-27T15:44:51.013Z,40.10
2023-04-27T15:47:19.142Z,40.57
2023-04-27T15:49:56.160Z,41.91
2023-04-27T15:52:24.855Z,41.80
2023-04-27T15:54:52.972Z,41.74
2023-04-27T15:57:19.719Z,41.78
2023-04-27T15:59:49.213Z,41.11
2023-04-27T16:02:24.010Z,41.89
2023-04-27T16:04:50.718Z,42.10
2023-04-27T16:07:17.332Z,41.74
2023-04-27T16:09:44.037Z,41.94
2023-04-27T16:12:11.728Z,42.34
2023-04-27T16:14:40.476Z,42.44
2023-04-27T16:17:07.102Z,42.86
2023-04-27T16:19:33.778Z,44.50
2023-04-27T16:22:01.735Z,44.33
2023-04-27T16:24:31.095Z,44.66
2023-04-27T16:26:57.986Z,44.52
2023-04-27T16:29:24.580Z,44.00
2023-04-27T16:31:52.350Z,44.13
2023-04-27T16:34:18.983Z,43.61
2023-04-27T16:36:47.617Z,44.15
2023-04-27T16:39:14.649Z,45.20
2023-04-27T16:41:41.607Z,44.15
2023-04-27T16:44:11.422Z,44.37
2023-04-27T16:46:38.125Z,44.29
2023-04-27T16:49:04.938Z,43.66
2023-04-27T16:51:31.947Z,44.78
2023-04-27T16:54:01.128Z,44.19
2023-04-27T16:59:12.662Z,44.29
2023-04-27T17:04:20.276Z,45.87
2023-04-27T17:09:29.852Z,45.99
2023-04-27T17:11:56.389Z,45.76
2023-04-27T17:17:05.999Z,45.90
2023-04-27T17:19:32.782Z,45.73
2023-04-27T17:22:00.792Z,46.52
2023-04-27T17:24:27.492Z,47.18
2023-04-27T17:26:54.105Z,47.18
2023-04-27T17:29:21.756Z,46.82
2023-04-27T17:31:49.348Z,47.11
2023-04-27T17:34:16.571Z,47.35
2023-04-27T17:36:43.140Z,47.27
2023-04-27T17:39:09.700Z,47.85
2023-04-27T17:41:37.248Z,47.81
2023-04-27T17:44:04.105Z,47.81
2023-04-27T17:46:32.029Z,47.57
2023-04-27T17:48:58.644Z,47.96
2023-04-27T17:51:27.073Z,48.15
2023-04-27T17:53:53.696Z,48.31
2023-04-27T17:58:40.190Z,48.21
2023-04-27T18:01:10.155Z,48.71
2023-04-27T18:03:37.200Z,48.54
2023-04-27T18:06:04.029Z,49.10
2023-04-27T18:08:30.823Z,49.82
2023-04-27T18:10:57.454Z,50.10
2023-04-27T18:26:50.058Z,50.22
2023-04-27T18:29:16.891Z,50.50
2023-04-27T18:31:43.744Z,50.40
2023-04-27T18:34:10.845Z,50.79
2023-04-27T18:36:37.520Z,51.33
2023-04-27T18:39:04.127Z,51.44
2023-04-27T18:41:30.693Z,51.43
2023-04-27T18:44:06.213Z,51.35
2023-04-27T18:46:33.198Z,51.54
2023-04-27T18:49:01.340Z,51.45
2023-04-27T18:51:29.126Z,51.83
2023-04-27T18:53:56.224Z,51.86
2023-04-27T18:56:23.007Z,52.13
2023-04-27T18:58:50.425Z,52.43
2023-04-27T19:01:24.600Z,52.96
2023-04-27T19:03:52.963Z,52.29
2023-04-27T19:06:21.073Z,52.64
2023-04-27T19:08:48.069Z,52.65
2023-04-27T19:11:14.728Z,53.17
2023-04-27T19:13:43.291Z,52.70
2023-04-27T19:16:10.541Z,52.75
2023-04-27T19:18:37.344Z,52.65
2023-04-27T19:21:04.615Z,53.39
2023-04-27T19:23:31.365Z,53.19
2023-04-27T19:26:09.562Z,52.90
2023-04-27T19:28:39.437Z,53.05
2023-04-27T19:31:07.118Z,53.35
2023-04-27T19:33:33.957Z,53.30
2023-04-27T19:36:00.616Z,53.44
2023-04-27T19:38:27.618Z,53.43
2023-04-27T19:40:54.212Z,53.22
2023-04-27T19:43:21.085Z,53.29
2023-04-27T19:45:49.417Z,53.76
2023-04-27T19:48:16.244Z,54.08
2023-04-27T19:50:44.348Z,54.18
2023-04-27T19:53:11.313Z,54.36
2023-04-27T19:55:38.124Z,54.51
2023-04-27T19:58:04.836Z,54.66
2023-04-27T20:00:31.599Z,54.79
2023-04-27T20:02:58.355Z,55.22
2023-04-27T20:05:25.694Z,55.27
2023-04-27T20:07:52.588Z,55.33
2023-04-27T20:10:19.236Z,55.50
2023-04-27T20:12:56.311Z,55.83
2023-04-27T20:15:24.769Z,55.94
2023-04-27T20:17:52.468Z,56.15
2023-04-27T20:20:19.386Z,55.88
2023-04-27T20:22:46.150Z,55.69
2023-04-27T20:25:14.819Z,55.99
2023-04-27T20:27:41.919Z,55.80
2023-04-27T20:30:09.047Z,55.43
2023-04-27T20:32:36.384Z,56.10
2023-04-27T20:35:04.913Z,55.97
2023-04-27T20:37:32.448Z,56.08
2023-04-27T20:40:01.940Z,55.88
2023-04-27T20:42:29.749Z,56.03
2023-04-27T20:44:56.256Z,56.27
2023-04-27T20:47:22.887Z,55.95
2023-04-27T20:49:49.668Z,56.42
2023-04-27T20:52:16.342Z,56.74
2023-04-27T20:54:42.902Z,56.44
2023-04-27T20:57:13.602Z,56.40
2023-04-27T20:59:41.162Z,56.69
2023-04-27T21:02:07.880Z,56.75
2023-04-27T21:04:34.788Z,56.88
2023-04-27T21:07:01.534Z,56.72
2023-04-27T21:09:28.154Z,56.72
2023-04-27T21:11:54.828Z,57.42
2023-04-27T21:14:21.454Z,57.20
2023-04-27T21:16:48.115Z,57.24
2023-04-27T21:19:16.605Z,57.32
2023-04-27T21:21:43.346Z,57.41
2023-04-27T21:24:10.017Z,57.84
2023-04-27T21:26:36.770Z,57.86
2023-04-27T21:29:05.802Z,57.85
2023-04-27T21:31:33.345Z,57.69
2023-04-27T21:34:00.217Z,57.98
2023-04-27T21:36:26.831Z,58.15
2023-04-27T21:38:53.454Z,57.83
2023-04-27T21:41:20.070Z,57.91
2023-04-27T21:43:46.641Z,58.22
2023-04-27T21:46:13.386Z,58.01
2023-04-27T21:48:39.985Z,58.44
2023-04-27T21:51:06.553Z,58.42
2023-04-27T21:53:33.154Z,58.62
2023-04-27T21:56:22.602Z,58.44
2023-04-27T21:58:55.176Z,58.71
2023-04-27T22:01:28.720Z,59.12
2023-04-27T22:04:29.571Z,59.18
2023-04-27T22:06:56.702Z,59.06
2023-04-27T22:09:23.238Z,58.68
2023-04-27T22:11:55.220Z,58.93
2023-04-27T22:14:21.898Z,59.01
2023-04-27T22:16:49.451Z,59.26
2023-04-27T22:19:18.013Z,59.03
2023-04-27T22:21:46.480Z,59.05
2023-04-27T22:24:13.343Z,59.85
2023-04-27T22:26:40.111Z,59.37
2023-04-27T22:29:06.707Z,59.87
2023-04-27T22:31:33.401Z,59.55
2023-04-27T22:34:00.141Z,59.61
2023-04-27T22:36:26.871Z,59.66
2023-04-27T22:38:53.456Z,59.86
2023-04-27T22:41:22.390Z,59.90
2023-04-27T22:43:48.947Z,60.02
2023-04-27T22:46:16.006Z,60.01
2023-04-27T22:48:43.746Z,60.21
2023-04-27T22:51:10.915Z,60.23
2023-04-27T22:53:37.567Z,60.24
2023-04-27T22:56:04.433Z,60.14
2023-04-27T22:58:31.102Z,60.26
2023-04-27T23:00:57.689Z,60.29
2023-04-27T23:03:24.542Z,60.21
2023-04-27T23:05:53.727Z,60.11
2023-04-27T23:08:24.903Z,60.21
2023-04-27T23:10:54.692Z,60.22
2023-04-27T23:13:27.698Z,60.39
2023-04-27T23:15:54.565Z,60.34
2023-04-27T23:18:21.435Z,60.67
2023-04-27T23:20:53.115Z,61.03
2023-04-27T23:23:19.676Z,61.44
2023-04-27T23:25:46.367Z,61.28
2023-04-27T23:28:18.726Z,61.18
2023-04-27T23:30:52.954Z,61.25
2023-04-27T23:33:19.658Z,61.52
2023-04-27T23:35:46.388Z,61.13
2023-04-27T23:38:12.973Z,61.02
2023-04-27T23:40:39.586Z,61.30
2023-04-27T23:43:06.291Z,61.43
2023-04-27T23:45:32.847Z,61.47
2023-04-27T23:48:00.256Z,61.70
2023-04-27T23:50:27.029Z,62.04
2023-04-27T23:52:53.584Z,62.24
2023-04-27T23:55:20.546Z,62.78
